sensor_id;sensor_type;location;lat;lon;timestamp;P1;durP1;ratioP1;P2;durP2;ratioP2
23670;SDS011;12012;51.998;7.614;2023-07-24T00:01:08;9.60;;;7.82;;
23670;SDS011;12012;51.998;7.614;2023-07-24T00:03:34;13.68;;;11.35;;
23670;SDS011;12012;51.998;7.614;2023-07-24T00:05:59;11.43;;;9.98;;
23670;SDS011;12012;51.998;7.614;2023-07-24T00:08:25;10.43;;;9.52;;
23670;SDS011;12012;51.998;7.614;2023-07-24T00:10:51;14.48;;;11.45;;
23670;SDS011;12012;51.998;7.614;2023-07-24T00:13:16;10.88;;;8.88;;
23670;SDS011;12012;51.998;7.614;2023-07-24T00:15:42;11.57;;;10.50;;
23670;SDS011;12012;51.998;7.614;2023-07-24T00:18:07;11.88;;;10.50;;
23670;SDS011;12012;51.998;7.614;2023-07-24T00:20:33;12.40;;;10.07;;
23670;SDS011;12012;51.998;7.614;2023-07-24T00:22:58;10.55;;;9.02;;
23670;SDS011;12012;51.998;7.614;2023-07-24T00:25:24;10.50;;;9.35;;
23670;SDS011;12012;51.998;7.614;2023-07-24T00:27:49;13.60;;;10.25;;
23670;SDS011;12012;51.998;7.614;2023-07-24T00:30:15;10.23;;;9.23;;
23670;SDS011;12012;51.998;7.614;2023-07-24T00:32:41;11.05;;;9.52;;
23670;SDS011;12012;51.998;7.614;2023-07-24T00:35:06;11.07;;;9.95;;
23670;SDS011;12012;51.998;7.614;2023-07-24T00:37:32;11.68;;;9.20;;
23670;SDS011;12012;51.998;7.614;2023-07-24T00:39:58;13.75;;;11.07;;
23670;SDS011;12012;51.998;7.614;2023-07-24T00:42:23;9.80;;;8.82;;
23670;SDS011;12012;51.998;7.614;2023-07-24T00:44:49;11.80;;;10.60;;
23670;SDS011;12012;51.998;7.614;2023-07-24T00:47:14;10.05;;;8.82;;
23670;SDS011;12012;51.998;7.614;2023-07-24T00:49:41;13.25;;;11.05;;
23670;SDS011;12012;51.998;7.614;2023-07-24T00:52:06;11.73;;;10.50;;
23670;SDS011;12012;51.998;7.614;2023-07-24T00:54:32;11.85;;;9.75;;
23670;SDS011;12012;51.998;7.614;2023-07-24T00:56:59;12.98;;;10.27;;
23670;SDS011;12012;51.998;7.614;2023-07-24T00:59:25;13.93;;;10.38;;
23670;SDS011;12012;51.998;7.614;2023-07-24T01:01:51;11.25;;;9.57;;
23670;SDS011;12012;51.998;7.614;2023-07-24T01:04:17;16.10;;;10.10;;
23670;SDS011;12012;51.998;7.614;2023-07-24T01:06:43;10.48;;;9.10;;
23670;SDS011;12012;51.998;7.614;2023-07-24T01:09:08;13.65;;;10.43;;
23670;SDS011;12012;51.998;7.614;2023-07-24T01:12:19;11.32;;;9.50;;
23670;SDS011;12012;51.998;7.614;2023-07-24T01:14:33;11.40;;;8.70;;
23670;SDS011;12012;51.998;7.614;2023-07-24T01:17:03;13.10;;;8.90;;
23670;SDS011;12012;51.998;7.614;2023-07-24T01:19:41;9.48;;;8.35;;
23670;SDS011;12012;51.998;7.614;2023-07-24T01:22:12;10.70;;;7.05;;
23670;SDS011;12012;51.998;7.614;2023-07-24T01:27:49;12.18;;;7.78;;
23670;SDS011;12012;51.998;7.614;2023-07-24T01:30:16;7.60;;;6.72;;
23670;SDS011;12012;51.998;7.614;2023-07-24T01:32:43;12.50;;;7.40;;
23670;SDS011;12012;51.998;7.614;2023-07-24T01:35:09;8.00;;;6.50;;
23670;SDS011;12012;51.998;7.614;2023-07-24T01:37:34;7.53;;;5.53;;
23670;SDS011;12012;51.998;7.614;2023-07-24T01:40:02;8.57;;;6.18;;
23670;SDS011;12012;51.998;7.614;2023-07-24T01:42:28;9.00;;;5.68;;
23670;SDS011;12012;51.998;7.614;2023-07-24T01:44:54;7.40;;;5.95;;
23670;SDS011;12012;51.998;7.614;2023-07-24T01:47:20;10.02;;;6.35;;
23670;SDS011;12012;51.998;7.614;2023-07-24T01:49:46;8.88;;;6.03;;
23670;SDS011;12012;51.998;7.614;2023-07-24T01:52:12;7.65;;;5.30;;
23670;SDS011;12012;51.998;7.614;2023-07-24T01:54:38;9.77;;;5.88;;
23670;SDS011;12012;51.998;7.614;2023-07-24T01:57:04;7.47;;;5.15;;
23670;SDS011;12012;51.998;7.614;2023-07-24T01:59:30;10.18;;;6.15;;
23670;SDS011;12012;51.998;7.614;2023-07-24T02:01:56;9.30;;;5.57;;
23670;SDS011;12012;51.998;7.614;2023-07-24T02:04:21;11.90;;;6.15;;
23670;SDS011;12012;51.998;7.614;2023-07-24T02:06:50;10.05;;;5.65;;
23670;SDS011;12012;51.998;7.614;2023-07-24T02:09:17;9.63;;;6.53;;
23670;SDS011;12012;51.998;7.614;2023-07-24T02:11:43;11.93;;;6.90;;
23670;SDS011;12012;51.998;7.614;2023-07-24T02:14:08;8.60;;;5.95;;
23670;SDS011;12012;51.998;7.614;2023-07-24T02:16:35;13.27;;;6.25;;
23670;SDS011;12012;51.998;7.614;2023-07-24T02:19:00;11.23;;;6.18;;
23670;SDS011;12012;51.998;7.614;2023-07-24T02:21:26;10.25;;;6.35;;
23670;SDS011;12012;51.998;7.614;2023-07-24T02:23:52;7.95;;;5.60;;
23670;SDS011;12012;51.998;7.614;2023-07-24T02:26:17;6.88;;;5.65;;
23670;SDS011;12012;51.998;7.614;2023-07-24T02:28:43;12.50;;;6.75;;
23670;SDS011;12012;51.998;7.614;2023-07-24T02:31:08;8.52;;;6.38;;
23670;SDS011;12012;51.998;7.614;2023-07-24T02:33:34;9.77;;;6.03;;
23670;SDS011;12012;51.998;7.614;2023-07-24T02:36:00;11.60;;;6.20;;
23670;SDS011;12012;51.998;7.614;2023-07-24T02:38:26;11.23;;;6.05;;
23670;SDS011;12012;51.998;7.614;2023-07-24T02:40:52;9.63;;;5.72;;
23670;SDS011;12012;51.998;7.614;2023-07-24T02:43:17;9.85;;;6.28;;
23670;SDS011;12012;51.998;7.614;2023-07-24T02:45:43;10.52;;;6.82;;
23670;SDS011;12012;51.998;7.614;2023-07-24T02:48:09;8.60;;;5.68;;
23670;SDS011;12012;51.998;7.614;2023-07-24T02:50:34;10.43;;;6.50;;
23670;SDS011;12012;51.998;7.614;2023-07-24T02:53:00;8.63;;;5.38;;
23670;SDS011;12012;51.998;7.614;2023-07-24T02:55:26;8.85;;;5.65;;
23670;SDS011;12012;51.998;7.614;2023-07-24T02:57:52;6.13;;;4.90;;
23670;SDS011;12012;51.998;7.614;2023-07-24T03:00:18;7.95;;;4.93;;
23670;SDS011;12012;51.998;7.614;2023-07-24T03:02:43;8.13;;;4.88;;
23670;SDS011;12012;51.998;7.614;2023-07-24T03:05:09;5.78;;;4.55;;
23670;SDS011;12012;51.998;7.614;2023-07-24T03:07:34;5.95;;;5.32;;
23670;SDS011;12012;51.998;7.614;2023-07-24T03:10:00;7.57;;;5.00;;
23670;SDS011;12012;51.998;7.614;2023-07-24T03:12:27;6.07;;;4.60;;
23670;SDS011;12012;51.998;7.614;2023-07-24T03:14:52;8.93;;;5.43;;
23670;SDS011;12012;51.998;7.614;2023-07-24T03:17:18;7.85;;;5.60;;
23670;SDS011;12012;51.998;7.614;2023-07-24T03:19:44;6.47;;;4.68;;
23670;SDS011;12012;51.998;7.614;2023-07-24T03:22:09;8.82;;;4.90;;
23670;SDS011;12012;51.998;7.614;2023-07-24T03:24:35;7.15;;;5.45;;
23670;SDS011;12012;51.998;7.614;2023-07-24T03:27:01;6.80;;;4.10;;
23670;SDS011;12012;51.998;7.614;2023-07-24T03:29:26;7.15;;;5.03;;
23670;SDS011;12012;51.998;7.614;2023-07-24T03:31:52;9.07;;;4.93;;
23670;SDS011;12012;51.998;7.614;2023-07-24T03:34:18;7.78;;;5.13;;
23670;SDS011;12012;51.998;7.614;2023-07-24T03:36:43;8.75;;;5.47;;
23670;SDS011;12012;51.998;7.614;2023-07-24T03:39:09;8.02;;;5.15;;
23670;SDS011;12012;51.998;7.614;2023-07-24T03:41:36;7.25;;;4.70;;
23670;SDS011;12012;51.998;7.614;2023-07-24T03:44:02;10.18;;;5.13;;
23670;SDS011;12012;51.998;7.614;2023-07-24T03:46:28;8.80;;;5.22;;
23670;SDS011;12012;51.998;7.614;2023-07-24T03:48:53;8.75;;;5.30;;
23670;SDS011;12012;51.998;7.614;2023-07-24T03:51:19;7.55;;;5.65;;
23670;SDS011;12012;51.998;7.614;2023-07-24T03:53:44;7.68;;;4.80;;
23670;SDS011;12012;51.998;7.614;2023-07-24T03:56:11;6.28;;;4.72;;
23670;SDS011;12012;51.998;7.614;2023-07-24T03:58:37;6.05;;;4.95;;
23670;SDS011;12012;51.998;7.614;2023-07-24T04:01:04;8.02;;;4.55;;
23670;SDS011;12012;51.998;7.614;2023-07-24T04:03:29;8.25;;;5.53;;
23670;SDS011;12012;51.998;7.614;2023-07-24T04:05:55;8.40;;;4.55;;
23670;SDS011;12012;51.998;7.614;2023-07-24T04:08:20;8.23;;;4.63;;
23670;SDS011;12012;51.998;7.614;2023-07-24T04:10:46;6.88;;;4.47;;
23670;SDS011;12012;51.998;7.614;2023-07-24T04:13:11;8.57;;;4.88;;
23670;SDS011;12012;51.998;7.614;2023-07-24T04:15:37;6.10;;;4.30;;
23670;SDS011;12012;51.998;7.614;2023-07-24T04:18:04;8.25;;;5.18;;
23670;SDS011;12012;51.998;7.614;2023-07-24T04:20:30;8.73;;;4.53;;
23670;SDS011;12012;51.998;7.614;2023-07-24T04:22:55;8.30;;;5.18;;
23670;SDS011;12012;51.998;7.614;2023-07-24T04:25:21;9.07;;;4.97;;
23670;SDS011;12012;51.998;7.614;2023-07-24T04:27:46;8.30;;;4.80;;
23670;SDS011;12012;51.998;7.614;2023-07-24T04:30:12;8.20;;;4.90;;
23670;SDS011;12012;51.998;7.614;2023-07-24T04:32:38;7.38;;;5.47;;
23670;SDS011;12012;51.998;7.614;2023-07-24T04:35:03;7.57;;;6.00;;
23670;SDS011;12012;51.998;7.614;2023-07-24T04:37:29;10.90;;;5.60;;
23670;SDS011;12012;51.998;7.614;2023-07-24T04:39:55;23.42;;;7.15;;
23670;SDS011;12012;51.998;7.614;2023-07-24T04:42:20;11.02;;;7.20;;
23670;SDS011;12012;51.998;7.614;2023-07-24T04:44:46;13.35;;;6.38;;
23670;SDS011;12012;51.998;7.614;2023-07-24T04:47:11;13.25;;;6.80;;
23670;SDS011;12012;51.998;7.614;2023-07-24T04:49:37;11.32;;;6.13;;
23670;SDS011;12012;51.998;7.614;2023-07-24T04:52:02;10.23;;;5.75;;
23670;SDS011;12012;51.998;7.614;2023-07-24T04:54:28;12.88;;;6.80;;
23670;SDS011;12012;51.998;7.614;2023-07-24T04:56:54;10.82;;;7.32;;
23670;SDS011;12012;51.998;7.614;2023-07-24T04:59:19;11.65;;;8.02;;
23670;SDS011;12012;51.998;7.614;2023-07-24T05:01:45;11.85;;;6.53;;
23670;SDS011;12012;51.998;7.614;2023-07-24T05:04:10;10.25;;;6.95;;
23670;SDS011;12012;51.998;7.614;2023-07-24T05:06:36;11.35;;;8.38;;
23670;SDS011;12012;51.998;7.614;2023-07-24T05:09:03;13.57;;;7.55;;
23670;SDS011;12012;51.998;7.614;2023-07-24T05:11:29;13.85;;;8.38;;
23670;SDS011;12012;51.998;7.614;2023-07-24T05:13:54;13.70;;;9.50;;
23670;SDS011;12012;51.998;7.614;2023-07-24T05:16:20;17.27;;;8.45;;
23670;SDS011;12012;51.998;7.614;2023-07-24T05:18:45;14.63;;;9.40;;
23670;SDS011;12012;51.998;7.614;2023-07-24T05:21:11;11.23;;;8.32;;
23670;SDS011;12012;51.998;7.614;2023-07-24T05:23:37;18.88;;;9.82;;
23670;SDS011;12012;51.998;7.614;2023-07-24T05:26:03;22.35;;;8.82;;
23670;SDS011;12012;51.998;7.614;2023-07-24T05:28:29;12.05;;;7.80;;
23670;SDS011;12012;51.998;7.614;2023-07-24T05:30:59;11.05;;;7.00;;
23670;SDS011;12012;51.998;7.614;2023-07-24T05:33:27;10.20;;;7.97;;
23670;SDS011;12012;51.998;7.614;2023-07-24T05:35:56;13.15;;;7.95;;
23670;SDS011;12012;51.998;7.614;2023-07-24T05:38:26;8.85;;;6.53;;
23670;SDS011;12012;51.998;7.614;2023-07-24T05:40:58;11.45;;;7.22;;
23670;SDS011;12012;51.998;7.614;2023-07-24T05:43:24;7.60;;;6.78;;
23670;SDS011;12012;51.998;7.614;2023-07-24T05:45:51;9.50;;;6.95;;
23670;SDS011;12012;51.998;7.614;2023-07-24T05:48:17;9.18;;;6.95;;
23670;SDS011;12012;51.998;7.614;2023-07-24T05:50:42;10.18;;;8.90;;
23670;SDS011;12012;51.998;7.614;2023-07-24T05:53:08;11.80;;;8.32;;
23670;SDS011;12012;51.998;7.614;2023-07-24T05:55:34;11.15;;;8.10;;
23670;SDS011;12012;51.998;7.614;2023-07-24T05:58:00;12.20;;;8.18;;
23670;SDS011;12012;51.998;7.614;2023-07-24T06:00:25;10.05;;;7.80;;
23670;SDS011;12012;51.998;7.614;2023-07-24T06:02:52;10.93;;;8.77;;
23670;SDS011;12012;51.998;7.614;2023-07-24T06:05:18;11.02;;;8.70;;
23670;SDS011;12012;51.998;7.614;2023-07-24T06:07:45;9.93;;;8.45;;
23670;SDS011;12012;51.998;7.614;2023-07-24T06:10:10;10.13;;;8.93;;
23670;SDS011;12012;51.998;7.614;2023-07-24T06:12:36;11.13;;;7.90;;
23670;SDS011;12012;51.998;7.614;2023-07-24T06:15:02;11.68;;;7.65;;
23670;SDS011;12012;51.998;7.614;2023-07-24T06:17:34;14.10;;;7.72;;
23670;SDS011;12012;51.998;7.614;2023-07-24T06:20:00;8.50;;;7.25;;
23670;SDS011;12012;51.998;7.614;2023-07-24T06:22:25;9.88;;;8.07;;
23670;SDS011;12012;51.998;7.614;2023-07-24T06:24:51;9.82;;;8.30;;
23670;SDS011;12012;51.998;7.614;2023-07-24T06:27:17;11.77;;;8.70;;
23670;SDS011;12012;51.998;7.614;2023-07-24T06:29:42;10.00;;;8.27;;
23670;SDS011;12012;51.998;7.614;2023-07-24T06:32:08;11.63;;;8.48;;
23670;SDS011;12012;51.998;7.614;2023-07-24T06:34:34;14.13;;;9.18;;
23670;SDS011;12012;51.998;7.614;2023-07-24T06:37:00;12.63;;;9.43;;
23670;SDS011;12012;51.998;7.614;2023-07-24T06:39:25;14.48;;;10.27;;
23670;SDS011;12012;51.998;7.614;2023-07-24T06:41:51;11.00;;;9.90;;
23670;SDS011;12012;51.998;7.614;2023-07-24T06:44:17;12.00;;;10.57;;
23670;SDS011;12012;51.998;7.614;2023-07-24T06:46:43;12.35;;;10.32;;
23670;SDS011;12012;51.998;7.614;2023-07-24T06:49:09;10.55;;;9.45;;
23670;SDS011;12012;51.998;7.614;2023-07-24T06:51:36;13.90;;;10.57;;
23670;SDS011;12012;51.998;7.614;2023-07-24T06:54:03;12.48;;;11.20;;
23670;SDS011;12012;51.998;7.614;2023-07-24T06:56:29;12.98;;;9.48;;
23670;SDS011;12012;51.998;7.614;2023-07-24T06:58:54;10.68;;;9.40;;
23670;SDS011;12012;51.998;7.614;2023-07-24T07:01:20;11.27;;;8.90;;
23670;SDS011;12012;51.998;7.614;2023-07-24T07:03:45;11.02;;;9.75;;
23670;SDS011;12012;51.998;7.614;2023-07-24T07:06:11;10.95;;;9.00;;
23670;SDS011;12012;51.998;7.614;2023-07-24T07:08:37;14.10;;;10.40;;
23670;SDS011;12012;51.998;7.614;2023-07-24T07:11:03;11.65;;;9.05;;
23670;SDS011;12012;51.998;7.614;2023-07-24T07:13:28;12.38;;;10.40;;
23670;SDS011;12012;51.998;7.614;2023-07-24T07:15:54;10.52;;;9.43;;
23670;SDS011;12012;51.998;7.614;2023-07-24T07:18:20;9.75;;;8.38;;
23670;SDS011;12012;51.998;7.614;2023-07-24T07:20:49;10.38;;;9.32;;
23670;SDS011;12012;51.998;7.614;2023-07-24T07:23:18;13.50;;;10.23;;
23670;SDS011;12012;51.998;7.614;2023-07-24T07:25:45;13.20;;;10.00;;
23670;SDS011;12012;51.998;7.614;2023-07-24T07:28:11;10.95;;;8.60;;
23670;SDS011;12012;51.998;7.614;2023-07-24T07:30:37;10.57;;;9.07;;
23670;SDS011;12012;51.998;7.614;2023-07-24T07:33:03;10.00;;;8.35;;
23670;SDS011;12012;51.998;7.614;2023-07-24T07:35:30;10.93;;;8.00;;
23670;SDS011;12012;51.998;7.614;2023-07-24T07:37:56;9.10;;;7.82;;
23670;SDS011;12012;51.998;7.614;2023-07-24T07:40:22;9.57;;;7.20;;
23670;SDS011;12012;51.998;7.614;2023-07-24T07:42:48;7.72;;;6.72;;
23670;SDS011;12012;51.998;7.614;2023-07-24T07:45:14;7.05;;;6.32;;
23670;SDS011;12012;51.998;7.614;2023-07-24T07:47:39;5.90;;;5.22;;
23670;SDS011;12012;51.998;7.614;2023-07-24T07:50:05;6.57;;;5.38;;
23670;SDS011;12012;51.998;7.614;2023-07-24T07:52:31;6.15;;;4.75;;
23670;SDS011;12012;51.998;7.614;2023-07-24T07:54:57;6.38;;;3.90;;
23670;SDS011;12012;51.998;7.614;2023-07-24T07:57:22;5.05;;;4.47;;
23670;SDS011;12012;51.998;7.614;2023-07-24T07:59:48;4.28;;;3.33;;
23670;SDS011;12012;51.998;7.614;2023-07-24T08:02:13;3.75;;;3.05;;
23670;SDS011;12012;51.998;7.614;2023-07-24T08:04:39;3.60;;;2.85;;
23670;SDS011;12012;51.998;7.614;2023-07-24T08:07:04;4.05;;;3.15;;
23670;SDS011;12012;51.998;7.614;2023-07-24T08:09:30;3.67;;;3.00;;
23670;SDS011;12012;51.998;7.614;2023-07-24T08:11:57;3.60;;;2.53;;
23670;SDS011;12012;51.998;7.614;2023-07-24T08:14:23;3.72;;;2.90;;
23670;SDS011;12012;51.998;7.614;2023-07-24T08:16:48;3.05;;;2.75;;
23670;SDS011;12012;51.998;7.614;2023-07-24T08:19:14;3.78;;;2.22;;
23670;SDS011;12012;51.998;7.614;2023-07-24T08:21:40;3.63;;;2.83;;
23670;SDS011;12012;51.998;7.614;2023-07-24T08:24:06;3.55;;;2.70;;
23670;SDS011;12012;51.998;7.614;2023-07-24T08:26:32;5.30;;;2.60;;
23670;SDS011;12012;51.998;7.614;2023-07-24T08:28:58;2.90;;;2.60;;
23670;SDS011;12012;51.998;7.614;2023-07-24T08:31:23;3.05;;;2.28;;
23670;SDS011;12012;51.998;7.614;2023-07-24T08:33:49;4.50;;;2.83;;
23670;SDS011;12012;51.998;7.614;2023-07-24T08:36:15;5.72;;;3.05;;
23670;SDS011;12012;51.998;7.614;2023-07-24T08:38:41;5.10;;;3.40;;
23670;SDS011;12012;51.998;7.614;2023-07-24T08:41:12;2.85;;;2.55;;
23670;SDS011;12012;51.998;7.614;2023-07-24T08:43:39;2.38;;;2.20;;
23670;SDS011;12012;51.998;7.614;2023-07-24T08:46:06;3.80;;;2.75;;
23670;SDS011;12012;51.998;7.614;2023-07-24T08:48:33;2.53;;;2.33;;
23670;SDS011;12012;51.998;7.614;2023-07-24T08:51:03;2.28;;;2.08;;
23670;SDS011;12012;51.998;7.614;2023-07-24T08:53:30;3.10;;;2.25;;
23670;SDS011;12012;51.998;7.614;2023-07-24T08:55:59;3.80;;;2.33;;
23670;SDS011;12012;51.998;7.614;2023-07-24T08:58:26;3.08;;;2.30;;
23670;SDS011;12012;51.998;7.614;2023-07-24T09:00:52;3.00;;;2.45;;
23670;SDS011;12012;51.998;7.614;2023-07-24T09:03:18;6.50;;;2.47;;
23670;SDS011;12012;51.998;7.614;2023-07-24T09:05:44;3.20;;;2.88;;
23670;SDS011;12012;51.998;7.614;2023-07-24T09:08:10;2.92;;;2.63;;
23670;SDS011;12012;51.998;7.614;2023-07-24T09:10:36;3.00;;;2.70;;
23670;SDS011;12012;51.998;7.614;2023-07-24T09:13:02;3.00;;;2.40;;
23670;SDS011;12012;51.998;7.614;2023-07-24T09:15:29;2.30;;;2.10;;
23670;SDS011;12012;51.998;7.614;2023-07-24T09:18:21;3.60;;;2.50;;
23670;SDS011;12012;51.998;7.614;2023-07-24T09:20:48;2.67;;;2.33;;
23670;SDS011;12012;51.998;7.614;2023-07-24T09:23:14;2.58;;;2.10;;
23670;SDS011;12012;51.998;7.614;2023-07-24T09:25:40;11.27;;;10.18;;
23670;SDS011;12012;51.998;7.614;2023-07-24T09:28:11;2.85;;;2.55;;
23670;SDS011;12012;51.998;7.614;2023-07-24T09:30:41;3.13;;;2.72;;
23670;SDS011;12012;51.998;7.614;2023-07-24T09:33:16;2.63;;;2.42;;
23670;SDS011;12012;51.998;7.614;2023-07-24T09:35:42;3.08;;;2.40;;
23670;SDS011;12012;51.998;7.614;2023-07-24T09:38:08;2.50;;;2.30;;
23670;SDS011;12012;51.998;7.614;2023-07-24T09:40:42;4.20;;;2.70;;
23670;SDS011;12012;51.998;7.614;2023-07-24T09:45:48;2.42;;;2.20;;
23670;SDS011;12012;51.998;7.614;2023-07-24T09:48:15;2.72;;;2.53;;
23670;SDS011;12012;51.998;7.614;2023-07-24T09:50:43;3.42;;;2.10;;
23670;SDS011;12012;51.998;7.614;2023-07-24T09:53:18;3.45;;;2.70;;
23670;SDS011;12012;51.998;7.614;2023-07-24T09:56:05;3.90;;;2.70;;
23670;SDS011;12012;51.998;7.614;2023-07-24T09:58:33;2.90;;;2.70;;
23670;SDS011;12012;51.998;7.614;2023-07-24T10:01:01;3.58;;;2.58;;
23670;SDS011;12012;51.998;7.614;2023-07-24T10:03:29;4.82;;;3.10;;
23670;SDS011;12012;51.998;7.614;2023-07-24T10:05:56;3.13;;;2.83;;
23670;SDS011;12012;51.998;7.614;2023-07-24T10:08:21;2.92;;;2.63;;
23670;SDS011;12012;51.998;7.614;2023-07-24T10:10:49;3.13;;;2.65;;
23670;SDS011;12012;51.998;7.614;2023-07-24T10:13:17;5.43;;;3.53;;
23670;SDS011;12012;51.998;7.614;2023-07-24T10:15:43;4.25;;;3.05;;
23670;SDS011;12012;51.998;7.614;2023-07-24T10:18:12;6.50;;;3.20;;
23670;SDS011;12012;51.998;7.614;2023-07-24T10:20:40;3.83;;;2.90;;
23670;SDS011;12012;51.998;7.614;2023-07-24T10:23:08;4.07;;;2.67;;
23670;SDS011;12012;51.998;7.614;2023-07-24T10:25:35;3.42;;;3.00;;
23670;SDS011;12012;51.998;7.614;2023-07-24T10:28:09;4.30;;;3.13;;
23670;SDS011;12012;51.998;7.614;2023-07-24T10:30:37;3.53;;;3.17;;
23670;SDS011;12012;51.998;7.614;2023-07-24T10:33:10;3.10;;;2.80;;
23670;SDS011;12012;51.998;7.614;2023-07-24T10:35:37;3.40;;;3.10;;
23670;SDS011;12012;51.998;7.614;2023-07-24T10:38:10;4.95;;;3.17;;
23670;SDS011;12012;51.998;7.614;2023-07-24T10:40:37;6.72;;;3.72;;
23670;SDS011;12012;51.998;7.614;2023-07-24T10:43:04;4.72;;;3.33;;
23670;SDS011;12012;51.998;7.614;2023-07-24T10:45:38;4.20;;;3.40;;
23670;SDS011;12012;51.998;7.614;2023-07-24T10:48:07;3.47;;;3.05;;
23670;SDS011;12012;51.998;7.614;2023-07-24T10:50:39;3.28;;;2.80;;
23670;SDS011;12012;51.998;7.614;2023-07-24T10:53:07;3.70;;;3.17;;
23670;SDS011;12012;51.998;7.614;2023-07-24T10:55:36;4.75;;;3.60;;
23670;SDS011;12012;51.998;7.614;2023-07-24T10:58:03;5.40;;;3.20;;
23670;SDS011;12012;51.998;7.614;2023-07-24T11:00:28;3.60;;;3.30;;
23670;SDS011;12012;51.998;7.614;2023-07-24T11:02:54;2.70;;;2.50;;
23670;SDS011;12012;51.998;7.614;2023-07-24T11:05:23;3.00;;;2.55;;
23670;SDS011;12012;51.998;7.614;2023-07-24T11:07:49;2.58;;;2.38;;
23670;SDS011;12012;51.998;7.614;2023-07-24T11:10:24;3.50;;;2.88;;
23670;SDS011;12012;51.998;7.614;2023-07-24T11:12:49;5.78;;;2.97;;
23670;SDS011;12012;51.998;7.614;2023-07-24T11:15:16;4.05;;;2.60;;
23670;SDS011;12012;51.998;7.614;2023-07-24T11:17:50;3.35;;;2.20;;
23670;SDS011;12012;51.998;7.614;2023-07-24T11:20:16;2.30;;;2.13;;
23670;SDS011;12012;51.998;7.614;2023-07-24T11:22:42;3.60;;;2.45;;
23670;SDS011;12012;51.998;7.614;2023-07-24T11:25:09;2.53;;;2.33;;
23670;SDS011;12012;51.998;7.614;2023-07-24T11:27:39;3.35;;;2.50;;
23670;SDS011;12012;51.998;7.614;2023-07-24T11:30:09;4.22;;;2.33;;
23670;SDS011;12012;51.998;7.614;2023-07-24T11:32:44;4.03;;;2.55;;
23670;SDS011;12012;51.998;7.614;2023-07-24T11:35:11;2.30;;;2.10;;
23670;SDS011;12012;51.998;7.614;2023-07-24T11:37:37;2.58;;;2.30;;
23670;SDS011;12012;51.998;7.614;2023-07-24T11:40:03;2.55;;;2.35;;
23670;SDS011;12012;51.998;7.614;2023-07-24T11:42:36;3.33;;;2.33;;
23670;SDS011;12012;51.998;7.614;2023-07-24T11:45:03;4.07;;;2.70;;
23670;SDS011;12012;51.998;7.614;2023-07-24T11:47:29;2.90;;;2.60;;
23670;SDS011;12012;51.998;7.614;2023-07-24T11:50:01;3.45;;;2.40;;
23670;SDS011;12012;51.998;7.614;2023-07-24T11:52:49;2.58;;;2.38;;
23670;SDS011;12012;51.998;7.614;2023-07-24T11:55:14;3.40;;;2.45;;
23670;SDS011;12012;51.998;7.614;2023-07-24T11:57:42;2.53;;;2.33;;
23670;SDS011;12012;51.998;7.614;2023-07-24T12:00:18;2.50;;;2.08;;
23670;SDS011;12012;51.998;7.614;2023-07-24T12:02:45;2.60;;;2.40;;
23670;SDS011;12012;51.998;7.614;2023-07-24T12:05:11;3.10;;;2.50;;
23670;SDS011;12012;51.998;7.614;2023-07-24T12:07:37;2.65;;;2.25;;
23670;SDS011;12012;51.998;7.614;2023-07-24T12:10:03;2.80;;;2.50;;
23670;SDS011;12012;51.998;7.614;2023-07-24T12:12:39;2.55;;;2.35;;
23670;SDS011;12012;51.998;7.614;2023-07-24T12:15:07;3.50;;;2.40;;
23670;SDS011;12012;51.998;7.614;2023-07-24T12:17:33;2.50;;;2.30;;
23670;SDS011;12012;51.998;7.614;2023-07-24T12:19:59;2.60;;;2.40;;
23670;SDS011;12012;51.998;7.614;2023-07-24T12:22:24;2.83;;;2.63;;
23670;SDS011;12012;51.998;7.614;2023-07-24T12:24:50;3.50;;;2.47;;
23670;SDS011;12012;51.998;7.614;2023-07-24T12:27:16;2.97;;;2.67;;
23670;SDS011;12012;51.998;7.614;2023-07-24T12:29:41;2.83;;;2.63;;
23670;SDS011;12012;51.998;7.614;2023-07-24T12:32:07;3.83;;;3.00;;
23670;SDS011;12012;51.998;7.614;2023-07-24T12:34:33;3.03;;;2.72;;
23670;SDS011;12012;51.998;7.614;2023-07-24T12:36:58;3.60;;;2.97;;
23670;SDS011;12012;51.998;7.614;2023-07-24T12:39:24;2.63;;;2.42;;
23670;SDS011;12012;51.998;7.614;2023-07-24T12:41:50;3.13;;;2.63;;
23670;SDS011;12012;51.998;7.614;2023-07-24T12:44:15;5.82;;;2.80;;
23670;SDS011;12012;51.998;7.614;2023-07-24T12:46:41;3.35;;;3.05;;
23670;SDS011;12012;51.998;7.614;2023-07-24T12:49:06;4.88;;;3.50;;
23670;SDS011;12012;51.998;7.614;2023-07-24T12:51:32;6.78;;;3.78;;
23670;SDS011;12012;51.998;7.614;2023-07-24T12:53:57;6.88;;;4.35;;
23670;SDS011;12012;51.998;7.614;2023-07-24T12:56:23;6.07;;;4.57;;
23670;SDS011;12012;51.998;7.614;2023-07-24T12:58:48;5.75;;;4.72;;
23670;SDS011;12012;51.998;7.614;2023-07-24T13:01:14;4.30;;;3.90;;
23670;SDS011;12012;51.998;7.614;2023-07-24T13:03:40;4.45;;;3.80;;
23670;SDS011;12012;51.998;7.614;2023-07-24T13:06:05;8.55;;;4.68;;
23670;SDS011;12012;51.998;7.614;2023-07-24T13:08:31;4.97;;;4.43;;
23670;SDS011;12012;51.998;7.614;2023-07-24T13:10:56;4.65;;;4.10;;
23670;SDS011;12012;51.998;7.614;2023-07-24T13:13:22;4.55;;;3.22;;
23670;SDS011;12012;51.998;7.614;2023-07-24T13:15:48;2.92;;;2.58;;
23670;SDS011;12012;51.998;7.614;2023-07-24T13:18:16;3.10;;;2.80;;
23670;SDS011;12012;51.998;7.614;2023-07-24T13:20:42;4.07;;;3.00;;
23670;SDS011;12012;51.998;7.614;2023-07-24T13:23:08;3.53;;;2.40;;
23670;SDS011;12012;51.998;7.614;2023-07-24T13:25:33;3.60;;;2.40;;
23670;SDS011;12012;51.998;7.614;2023-07-24T13:27:59;2.15;;;2.00;;
23670;SDS011;12012;51.998;7.614;2023-07-24T13:30:25;2.80;;;2.38;;
23670;SDS011;12012;51.998;7.614;2023-07-24T13:32:50;2.75;;;1.85;;
23670;SDS011;12012;51.998;7.614;2023-07-24T13:35:16;2.40;;;2.15;;
23670;SDS011;12012;51.998;7.614;2023-07-24T13:37:42;2.08;;;1.90;;
23670;SDS011;12012;51.998;7.614;2023-07-24T13:40:07;2.17;;;1.98;;
23670;SDS011;12012;51.998;7.614;2023-07-24T13:42:33;2.63;;;2.15;;
23670;SDS011;12012;51.998;7.614;2023-07-24T13:44:59;2.13;;;1.92;;
23670;SDS011;12012;51.998;7.614;2023-07-24T13:47:25;2.50;;;2.30;;
23670;SDS011;12012;51.998;7.614;2023-07-24T13:49:51;2.88;;;2.30;;
23670;SDS011;12012;51.998;7.614;2023-07-24T13:52:16;2.35;;;2.15;;
23670;SDS011;12012;51.998;7.614;2023-07-24T13:54:42;2.20;;;2.00;;
23670;SDS011;12012;51.998;7.614;2023-07-24T13:57:08;2.30;;;2.05;;
23670;SDS011;12012;51.998;7.614;2023-07-24T13:59:34;3.33;;;2.47;;
23670;SDS011;12012;51.998;7.614;2023-07-24T14:02:00;2.45;;;2.15;;
23670;SDS011;12012;51.998;7.614;2023-07-24T14:04:25;2.40;;;2.20;;
23670;SDS011;12012;51.998;7.614;2023-07-24T14:06:51;2.65;;;2.42;;
23670;SDS011;12012;51.998;7.614;2023-07-24T14:09:16;3.53;;;2.30;;
23670;SDS011;12012;51.998;7.614;2023-07-24T14:11:42;3.50;;;2.83;;
23670;SDS011;12012;51.998;7.614;2023-07-24T14:14:07;3.42;;;2.50;;
23670;SDS011;12012;51.998;7.614;2023-07-24T14:16:33;4.35;;;2.90;;
23670;SDS011;12012;51.998;7.614;2023-07-24T14:18:59;2.80;;;2.58;;
23670;SDS011;12012;51.998;7.614;2023-07-24T14:21:25;2.88;;;2.67;;
23670;SDS011;12012;51.998;7.614;2023-07-24T14:23:50;2.70;;;2.50;;
23670;SDS011;12012;51.998;7.614;2023-07-24T14:26:16;2.30;;;2.10;;
23670;SDS011;12012;51.998;7.614;2023-07-24T14:28:41;3.83;;;2.50;;
23670;SDS011;12012;51.998;7.614;2023-07-24T14:31:07;2.70;;;2.50;;
23670;SDS011;12012;51.998;7.614;2023-07-24T14:33:33;3.15;;;2.85;;
23670;SDS011;12012;51.998;7.614;2023-07-24T14:35:59;2.40;;;2.20;;
23670;SDS011;12012;51.998;7.614;2023-07-24T14:38:25;2.90;;;2.70;;
23670;SDS011;12012;51.998;7.614;2023-07-24T14:40:51;3.15;;;2.90;;
23670;SDS011;12012;51.998;7.614;2023-07-24T14:43:16;4.07;;;2.75;;
23670;SDS011;12012;51.998;7.614;2023-07-24T14:45:42;4.90;;;3.08;;